Time,TemperatureF,DewpointF,PressureIn,WindDirection,WindDirectionDegrees,WindSpeedMPH,WindSpeedGustMPH,Humidity,HourlyPrecipIn,Conditions,Clouds,dailyrainin,SoftwareType,DateUTC
2013-05-04 00:01:00,31.0,17.0,-100.00,NNE,13,7.0,15.0,56,-99.99,,,-99.99,,2013-05-04 06:01:00,
2013-05-04 00:11:00,31.0,17.0,-100.00,NNE,13,7.0,15.0,56,-99.99,,,-99.99,,2013-05-04 06:11:00,
2013-05-04 00:21:00,32.0,19.0,-100.00,NNE,12,9.0,23.0,57,-99.99,,,-99.99,,2013-05-04 06:21:00,
2013-05-04 00:32:00,31.0,18.0,-100.00,NNE,17,8.0,17.0,59,-99.99,,,-99.99,,2013-05-04 06:32:00,
2013-05-04 00:41:00,31.0,18.0,-100.00,NNE,17,8.0,17.0,59,-99.99,,,-99.99,,2013-05-04 06:41:00,
2013-05-04 00:52:00,31.0,19.0,-100.00,NNE,28,7.0,16.0,61,-99.99,,,-99.99,,2013-05-04 06:52:00,
2013-05-04 01:01:00,31.0,18.0,-100.00,NNE,20,10.0,17.0,59,-99.99,,,-99.99,,2013-05-04 07:01:00,
2013-05-04 01:11:00,31.0,18.0,-100.00,NNE,20,10.0,17.0,59,-99.99,,,-99.99,,2013-05-04 07:11:00,
2013-05-04 01:21:00,31.0,19.0,-100.00,NE,47,7.0,15.0,60,-99.99,,,-99.99,,2013-05-04 07:21:00,
2013-05-04 01:31:00,31.0,18.0,-100.00,NE,44,7.0,14.0,59,-99.99,,,-99.99,,2013-05-04 07:31:00,
2013-05-04 01:41:00,31.0,18.0,-100.00,NE,44,7.0,14.0,59,-99.99,,,-99.99,,2013-05-04 07:41:00,
2013-05-04 01:52:00,31.0,18.0,-100.00,NNE,21,11.0,18.0,59,-99.99,,,-99.99,,2013-05-04 07:52:00,
2013-05-04 02:01:00,31.0,20.0,-100.00,North,10,12.0,20.0,62,-99.99,,,-99.99,,2013-05-04 08:01:00,
2013-05-04 02:11:00,31.0,20.0,-100.00,North,10,12.0,20.0,62,-99.99,,,-99.99,,2013-05-04 08:11:00,
2013-05-04 02:21:00,30.0,20.0,-100.00,NNE,14,14.0,21.0,66,-99.99,,,-99.99,,2013-05-04 08:21:00,
2013-05-04 02:31:00,30.0,20.0,-100.00,North,6,11.0,19.0,67,-99.99,,,-99.99,,2013-05-04 08:31:00,
2013-05-04 02:41:00,30.0,20.0,-100.00,North,6,11.0,19.0,67,-99.99,,,-99.99,,2013-05-04 08:41:00,
2013-05-04 02:52:00,30.0,20.0,-100.00,North,11,10.0,15.0,66,-99.99,,,-99.99,,2013-05-04 08:52:00,
2013-05-04 03:02:00,30.0,20.0,-100.00,North,7,9.0,13.0,65,-99.99,,,-99.99,,2013-05-04 09:02:00,
2013-05-04 03:11:00,30.0,20.0,-100.00,North,7,9.0,13.0,65,-99.99,,,-99.99,,2013-05-04 09:11:00,
2013-05-04 03:21:00,30.0,20.0,-100.00,NNE,22,9.0,16.0,65,-99.99,,,-99.99,,2013-05-04 09:21:00,
2013-05-04 03:32:00,30.0,20.0,-100.00,NNE,21,10.0,17.0,66,-99.99,,,-99.99,,2013-05-04 09:32:00,
2013-05-04 03:42:00,30.0,20.0,-100.00,NNE,21,10.0,17.0,66,-99.99,,,-99.99,,2013-05-04 09:42:00,
2013-05-04 03:53:00,30.0,20.0,-100.00,NNE,28,11.0,15.0,66,-99.99,,,-99.99,,2013-05-04 09:53:00,
2013-05-04 04:02:00,30.0,20.0,-100.00,NNE,27,11.0,18.0,66,-99.99,,,-99.99,,2013-05-04 10:02:00,
2013-05-04 04:12:00,30.0,20.0,-100.00,NNE,27,11.0,18.0,66,-99.99,,,-99.99,,2013-05-04 10:12:00,
2013-05-04 04:22:00,29.0,19.0,-100.00,NNE,25,11.0,15.0,67,-99.99,,,-99.99,,2013-05-04 10:22:00,
2013-05-04 04:33:00,29.0,19.0,-100.00,NNE,21,10.0,14.0,67,-99.99,,,-99.99,,2013-05-04 10:33:00,
2013-05-04 04:42:00,29.0,19.0,-100.00,NNE,21,10.0,14.0,67,-99.99,,,-99.99,,2013-05-04 10:42:00,
2013-05-04 04:53:00,29.0,19.0,-100.00,NNE,20,9.0,12.0,67,-99.99,,,-99.99,,2013-05-04 10:53:00,
2013-05-04 05:02:00,29.0,20.0,-100.00,NNE,23,9.0,17.0,68,-99.99,,,-99.99,,2013-05-04 11:02:00,
2013-05-04 05:11:00,29.0,20.0,-100.00,NNE,23,9.0,17.0,68,-99.99,,,-99.99,,2013-05-04 11:11:00,
2013-05-04 05:21:00,29.0,20.0,-100.00,NNE,33,9.0,17.0,69,-99.99,,,-99.99,,2013-05-04 11:21:00,
2013-05-04 05:32:00,29.0,21.0,-100.00,East,82,9.0,18.0,73,-99.99,,,-99.99,,2013-05-04 11:32:00,
2013-05-04 05:42:00,29.0,21.0,-100.00,East,82,9.0,18.0,73,-99.99,,,-99.99,,2013-05-04 11:42:00,
2013-05-04 06:00:00,28.0,21.0,-100.00,East,86,10.0,21.0,74,-99.99,,,-99.99,,2013-05-04 12:00:00,
2013-05-04 06:25:00,28.0,22.0,-100.00,NE,54,6.0,17.0,78,-99.99,,,-99.99,,2013-05-04 12:25:00,
2013-05-04 06:33:00,28.0,22.0,-100.00,NE,54,6.0,17.0,78,-99.99,,,-99.99,,2013-05-04 12:33:00,
2013-05-04 06:42:00,28.0,22.0,-100.00,NE,54,6.0,17.0,78,-99.99,,,-99.99,,2013-05-04 12:42:00,
2013-05-04 06:52:00,27.0,22.0,-100.00,NE,37,7.0,13.0,80,-99.99,,,-99.99,,2013-05-04 12:52:00,
2013-05-04 07:01:00,27.0,22.0,-100.00,NE,40,5.0,12.0,80,-99.99,,,-99.99,,2013-05-04 13:01:00,
2013-05-04 07:11:00,27.0,22.0,-100.00,NE,40,5.0,12.0,80,-99.99,,,-99.99,,2013-05-04 13:11:00,
2013-05-04 07:32:00,27.0,23.0,-100.00,East,87,9.0,18.0,83,-99.99,,,-99.99,,2013-05-04 13:32:00,
2013-05-04 07:41:00,27.0,23.0,-100.00,East,87,9.0,18.0,83,-99.99,,,-99.99,,2013-05-04 13:41:00,
2013-05-04 07:52:00,27.0,24.0,-100.00,East,80,10.0,17.0,88,-99.99,,,-99.99,,2013-05-04 13:52:00,
2013-05-04 08:02:00,26.0,24.0,-100.00,NE,53,8.0,17.0,91,-99.99,,,-99.99,,2013-05-04 14:02:00,
2013-05-04 08:11:00,26.0,24.0,-100.00,NE,53,8.0,17.0,91,-99.99,,,-99.99,,2013-05-04 14:11:00,
2013-05-04 08:21:00,26.0,24.0,-100.00,NE,37,9.0,15.0,93,-99.99,,,-99.99,,2013-05-04 14:21:00,
2013-05-04 08:32:00,26.0,24.0,-100.00,NE,48,9.0,13.0,92,-99.99,,,-99.99,,2013-05-04 14:32:00,
2013-05-04 08:41:00,26.0,24.0,-100.00,NE,48,9.0,13.0,92,-99.99,,,-99.99,,2013-05-04 14:41:00,
2013-05-04 08:52:00,27.0,24.0,-100.00,NE,51,9.0,14.0,89,-99.99,,,-99.99,,2013-05-04 14:52:00,
2013-05-04 09:01:00,27.0,25.0,-100.00,NE,54,10.0,14.0,91,-99.99,,,-99.99,,2013-05-04 15:01:00,
2013-05-04 09:11:00,27.0,25.0,-100.00,NE,54,10.0,14.0,91,-99.99,,,-99.99,,2013-05-04 15:11:00,
2013-05-04 09:21:00,27.0,25.0,-100.00,NE,49,8.0,15.0,91,-99.99,,,-99.99,,2013-05-04 15:21:00,
2013-05-04 09:33:00,27.0,24.0,-100.00,ENE,62,7.0,14.0,89,-99.99,,,-99.99,,2013-05-04 15:33:00,
2013-05-04 09:43:00,27.0,24.0,-100.00,ENE,62,7.0,14.0,89,-99.99,,,-99.99,,2013-05-04 15:43:00,
2013-05-04 09:53:00,28.0,25.0,-100.00,East,99,8.0,15.0,90,-99.99,,,-99.99,,2013-05-04 15:53:00,
2013-05-04 10:03:00,28.0,25.0,-100.00,East,92,10.0,15.0,90,-99.99,,,-99.99,,2013-05-04 16:03:00,
2013-05-04 10:12:00,28.0,25.0,-100.00,East,92,10.0,15.0,90,-99.99,,,-99.99,,2013-05-04 16:12:00,
2013-05-04 10:22:00,28.0,26.0,-100.00,ENE,75,9.0,14.0,91,-99.99,,,-99.99,,2013-05-04 16:22:00,
2013-05-04 10:33:00,29.0,26.0,-100.00,NE,45,8.0,13.0,88,-99.99,,,-99.99,,2013-05-04 16:33:00,
2013-05-04 10:42:00,29.0,26.0,-100.00,NE,45,8.0,13.0,88,-99.99,,,-99.99,,2013-05-04 16:42:00,
2013-05-04 10:52:00,30.0,26.0,-100.00,NE,45,8.0,13.0,85,-99.99,,,-99.99,,2013-05-04 16:52:00,
2013-05-04 11:02:00,32.0,27.0,-100.00,NE,56,8.0,13.0,81,-99.99,,,-99.99,,2013-05-04 17:02:00,
2013-05-04 11:12:00,32.0,27.0,-100.00,NE,56,8.0,13.0,81,-99.99,,,-99.99,,2013-05-04 17:12:00,
2013-05-04 11:22:00,33.0,27.0,-100.00,ENE,67,6.0,9.0,77,-99.99,,,-99.99,,2013-05-04 17:22:00,
2013-05-04 11:32:00,33.0,27.0,-100.00,East,80,6.0,14.0,77,-99.99,,,-99.99,,2013-05-04 17:32:00,
2013-05-04 11:42:00,33.0,27.0,-100.00,East,80,6.0,14.0,77,-99.99,,,-99.99,,2013-05-04 17:42:00,
2013-05-04 11:52:00,33.0,27.0,-100.00,ENE,71,8.0,15.0,77,-99.99,,,-99.99,,2013-05-04 17:52:00,
2013-05-04 12:01:00,32.0,25.0,-100.00,ENE,60,8.0,16.0,76,-99.99,,,-99.99,,2013-05-04 18:01:00,
2013-05-04 12:12:00,32.0,25.0,-100.00,ENE,60,8.0,16.0,76,-99.99,,,-99.99,,2013-05-04 18:12:00,
2013-05-04 12:21:00,33.0,25.0,-100.00,ENE,64,9.0,15.0,73,-99.99,,,-99.99,,2013-05-04 18:21:00,
2013-05-04 12:32:00,35.0,26.0,-100.00,ENE,66,7.0,15.0,68,-99.99,,,-99.99,,2013-05-04 18:32:00,
2013-05-04 12:42:00,35.0,26.0,-100.00,ENE,66,7.0,15.0,68,-99.99,,,-99.99,,2013-05-04 18:42:00,
2013-05-04 12:52:00,35.0,26.0,-100.00,ESE,105,6.0,14.0,68,-99.99,,,-99.99,,2013-05-04 18:52:00,
2013-05-04 13:01:00,36.0,26.0,-100.00,East,90,9.0,17.0,67,-99.99,,,-99.99,,2013-05-04 19:01:00,
2013-05-04 13:11:00,36.0,26.0,-100.00,East,90,9.0,17.0,67,-99.99,,,-99.99,,2013-05-04 19:11:00,
2013-05-04 13:21:00,35.0,26.0,-100.00,East,96,9.0,18.0,69,-99.99,,,-99.99,,2013-05-04 19:21:00,
2013-05-04 13:31:00,32.0,26.0,-100.00,ESE,107,11.0,21.0,78,-99.99,,,-99.99,,2013-05-04 19:31:00,
2013-05-04 13:42:00,32.0,26.0,-100.00,ESE,107,11.0,21.0,78,-99.99,,,-99.99,,2013-05-04 19:42:00,
2013-05-04 13:52:00,31.0,28.0,-100.00,East,99,11.0,20.0,87,-99.99,,,-99.99,,2013-05-04 19:52:00,
2013-05-04 14:02:00,29.0,27.0,-100.00,East,100,13.0,21.0,92,-99.99,,,-99.99,,2013-05-04 20:02:00,
2013-05-04 14:11:00,29.0,27.0,-100.00,East,100,13.0,21.0,92,-99.99,,,-99.99,,2013-05-04 20:11:00,
2013-05-04 14:21:00,29.0,27.0,-100.00,East,96,12.0,22.0,91,-99.99,,,-99.99,,2013-05-04 20:21:00,
2013-05-04 14:31:00,29.0,27.0,-100.00,ESE,104,12.0,17.0,93,-99.99,,,-99.99,,2013-05-04 20:31:00,
2013-05-04 14:41:00,29.0,27.0,-100.00,ESE,104,12.0,17.0,93,-99.99,,,-99.99,,2013-05-04 20:41:00,
2013-05-04 14:52:00,29.0,27.0,-100.00,ESE,107,10.0,16.0,93,-99.99,,,-99.99,,2013-05-04 20:52:00,
2013-05-04 15:01:00,28.0,26.0,-100.00,SE,142,11.0,13.0,93,-99.99,,,-99.99,,2013-05-04 21:01:00,
2013-05-04 15:11:00,28.0,26.0,-100.00,SE,142,11.0,13.0,93,-99.99,,,-99.99,,2013-05-04 21:11:00,
2013-05-04 15:22:00,29.0,27.0,-100.00,SE,125,9.0,14.0,92,-99.99,,,-99.99,,2013-05-04 21:22:00,
2013-05-04 15:33:00,29.0,27.0,-100.00,ESE,112,15.0,19.0,91,-99.99,,,-99.99,,2013-05-04 21:33:00,
2013-05-04 15:43:00,29.0,27.0,-100.00,ESE,112,15.0,19.0,91,-99.99,,,-99.99,,2013-05-04 21:43:00,
2013-05-04 15:53:00,29.0,26.0,-100.00,ESE,115,14.0,21.0,90,-99.99,,,-99.99,,2013-05-04 21:53:00,
2013-05-04 16:02:00,30.0,28.0,-100.00,ESE,102,10.0,16.0,91,-99.99,,,-99.99,,2013-05-04 22:02:00,
2013-05-04 16:12:00,30.0,28.0,-100.00,ESE,102,10.0,16.0,91,-99.99,,,-99.99,,2013-05-04 22:12:00,
2013-05-04 16:22:00,32.0,28.0,-100.00,East,100,9.0,16.0,85,-99.99,,,-99.99,,2013-05-04 22:22:00,
2013-05-04 16:32:00,31.0,28.0,-100.00,East,84,12.0,20.0,87,-99.99,,,-99.99,,2013-05-04 22:32:00,
2013-05-04 16:42:00,31.0,28.0,-100.00,East,84,12.0,20.0,87,-99.99,,,-99.99,,2013-05-04 22:42:00,
2013-05-04 16:52:00,30.0,27.0,-100.00,East,88,8.0,17.0,88,-99.99,,,-99.99,,2013-05-04 22:52:00,
2013-05-04 17:02:00,31.0,28.0,-100.00,NE,38,7.0,19.0,87,-99.99,,,-99.99,,2013-05-04 23:02:00,
2013-05-04 17:11:00,31.0,28.0,-100.00,NE,38,7.0,19.0,87,-99.99,,,-99.99,,2013-05-04 23:11:00,
2013-05-04 17:21:00,31.0,28.0,-100.00,East,93,11.0,20.0,87,-99.99,,,-99.99,,2013-05-04 23:21:00,
2013-05-04 17:32:00,31.0,28.0,-100.00,East,96,9.0,16.0,89,-99.99,,,-99.99,,2013-05-04 23:32:00,
2013-05-04 17:42:00,31.0,28.0,-100.00,East,96,9.0,16.0,89,-99.99,,,-99.99,,2013-05-04 23:42:00,
2013-05-04 17:52:00,31.0,26.0,-100.00,ENE,76,11.0,15.0,83,-99.99,,,-99.99,,2013-05-04 23:52:00,
2013-05-04 18:01:00,31.0,26.0,-100.00,SE,136,12.0,19.0,81,-99.99,,,-99.99,,2013-05-05 00:01:00,
2013-05-04 18:11:00,31.0,26.0,-100.00,SE,136,12.0,19.0,81,-99.99,,,-99.99,,2013-05-05 00:11:00,
2013-05-04 18:21:00,30.0,27.0,-100.00,SE,141,13.0,19.0,89,-99.99,,,-99.99,,2013-05-05 00:21:00,
2013-05-04 18:31:00,30.0,27.0,-100.00,SE,141,13.0,19.0,89,-99.99,,,-99.99,,2013-05-05 00:31:00,
2013-05-04 18:42:00,30.0,27.0,-100.00,SE,141,13.0,19.0,89,-99.99,,,-99.99,,2013-05-05 00:42:00,
2013-05-04 18:52:00,30.0,27.0,-100.00,ESE,107,11.0,15.0,88,-99.99,,,-99.99,,2013-05-05 00:52:00,
2013-05-04 19:01:00,30.0,27.0,-100.00,ENE,62,14.0,19.0,87,-99.99,,,-99.99,,2013-05-05 01:01:00,
2013-05-04 19:11:00,30.0,27.0,-100.00,ENE,62,14.0,19.0,87,-99.99,,,-99.99,,2013-05-05 01:11:00,
2013-05-04 19:21:00,30.0,25.0,-100.00,NNE,32,11.0,19.0,83,-99.99,,,-99.99,,2013-05-05 01:21:00,
2013-05-04 19:32:00,31.0,27.0,-100.00,NNE,32,8.0,17.0,84,-99.99,,,-99.99,,2013-05-05 01:32:00,
2013-05-04 19:42:00,31.0,27.0,-100.00,NNE,32,8.0,17.0,84,-99.99,,,-99.99,,2013-05-05 01:42:00,
2013-05-04 19:52:00,30.0,26.0,-100.00,East,87,9.0,16.0,84,-99.99,,,-99.99,,2013-05-05 01:52:00,
2013-05-04 20:02:00,29.0,27.0,-100.00,NE,41,14.0,22.0,92,-99.99,,,-99.99,,2013-05-05 02:02:00,
2013-05-04 20:11:00,29.0,27.0,-100.00,NE,41,14.0,22.0,92,-99.99,,,-99.99,,2013-05-05 02:11:00,
2013-05-04 20:21:00,27.0,26.0,-100.00,NNE,13,14.0,21.0,95,-99.99,,,-99.99,,2013-05-05 02:21:00,
2013-05-04 20:31:00,28.0,26.0,-100.00,NNE,33,10.0,22.0,92,-99.99,,,-99.99,,2013-05-05 02:31:00,
2013-05-04 20:42:00,28.0,26.0,-100.00,NNE,33,10.0,22.0,92,-99.99,,,-99.99,,2013-05-05 02:42:00,
2013-05-04 20:52:00,28.0,25.0,-100.00,NE,40,9.0,19.0,89,-99.99,,,-99.99,,2013-05-05 02:52:00,
2013-05-04 21:01:00,28.0,25.0,-100.00,NNE,29,14.0,24.0,87,-99.99,,,-99.99,,2013-05-05 03:01:00,
2013-05-04 21:11:00,28.0,25.0,-100.00,NNE,29,14.0,24.0,87,-99.99,,,-99.99,,2013-05-05 03:11:00,
2013-05-04 21:21:00,28.0,25.0,-100.00,ENE,57,10.0,20.0,87,-99.99,,,-99.99,,2013-05-05 03:21:00,
2013-05-04 21:32:00,28.0,25.0,-100.00,ENE,61,10.0,23.0,89,-99.99,,,-99.99,,2013-05-05 03:32:00,
2013-05-04 21:42:00,28.0,25.0,-100.00,ENE,61,10.0,23.0,89,-99.99,,,-99.99,,2013-05-05 03:42:00,
2013-05-04 21:53:00,28.0,25.0,-100.00,ENE,61,9.0,24.0,87,-99.99,,,-99.99,,2013-05-05 03:53:00,
2013-05-04 22:02:00,28.0,25.0,-100.00,ENE,62,12.0,21.0,87,-99.99,,,-99.99,,2013-05-05 04:02:00,
2013-05-04 22:12:00,28.0,25.0,-100.00,ENE,62,12.0,21.0,87,-99.99,,,-99.99,,2013-05-05 04:12:00,
2013-05-04 22:22:00,28.0,25.0,-100.00,ENE,78,14.0,22.0,89,-99.99,,,-99.99,,2013-05-05 04:22:00,
2013-05-04 22:32:00,28.0,25.0,-100.00,East,83,12.0,18.0,90,-99.99,,,-99.99,,2013-05-05 04:32:00,
2013-05-04 22:43:00,28.0,25.0,-100.00,East,83,12.0,18.0,90,-99.99,,,-99.99,,2013-05-05 04:43:00,
2013-05-04 22:52:00,28.0,27.0,-100.00,NE,50,8.0,14.0,94,-99.99,,,-99.99,,2013-05-05 04:52:00,
2013-05-04 23:02:00,28.0,27.0,-100.00,NE,40,8.0,16.0,95,-99.99,,,-99.99,,2013-05-05 05:02:00,
2013-05-04 23:12:00,28.0,27.0,-100.00,NE,40,8.0,16.0,95,-99.99,,,-99.99,,2013-05-05 05:12:00,
2013-05-04 23:21:00,28.0,27.0,-100.00,NNE,33,7.0,11.0,95,-99.99,,,-99.99,,2013-05-05 05:21:00,
2013-05-04 23:31:00,28.0,27.0,-100.00,NNE,21,13.0,18.0,95,-99.99,,,-99.99,,2013-05-05 05:31:00,
2013-05-04 23:42:00,28.0,27.0,-100.00,NNE,21,13.0,18.0,95,-99.99,,,-99.99,,2013-05-05 05:42:00,
2013-05-04 23:52:00,28.0,27.0,-100.00,NNE,31,13.0,16.0,96,-99.99,,,-99.99,,2013-05-05 05:52:00,